createdAt,value
2022-10-26T00:02:02.142Z,84.69
2022-10-26T00:07:07.841Z,84.88
2022-10-26T00:12:13.294Z,84.97
2022-10-26T00:17:18.832Z,85.26
2022-10-26T00:22:24.654Z,85.20
2022-10-26T00:27:30.174Z,85.33
2022-10-26T00:32:36.383Z,85.29
2022-10-26T00:37:42.012Z,85.25
2022-10-26T00:42:47.790Z,85.18
2022-10-26T00:47:57.820Z,85.10
2022-10-26T00:53:06.139Z,85.18
2022-10-26T00:58:12.955Z,85.17
2022-10-26T01:03:18.962Z,85.00
2022-10-26T01:08:25.787Z,85.40
2022-10-26T01:13:35.965Z,85.28
2022-10-26T01:19:11.580Z,85.44
2022-10-26T01:24:37.406Z,85.54
2022-10-26T01:29:51.909Z,85.60
2022-10-26T01:35:03.216Z,85.55
2022-10-26T01:40:17.477Z,85.70
2022-10-26T01:45:23.336Z,85.77
2022-10-26T01:50:30.122Z,85.58
2022-10-26T01:55:42.005Z,85.54
2022-10-26T02:00:50.450Z,85.54
2022-10-26T02:06:04.214Z,85.65
2022-10-26T02:11:24.631Z,85.64
2022-10-26T02:16:33.048Z,85.60
2022-10-26T02:21:44.480Z,85.69
2022-10-26T02:26:53.399Z,85.74
2022-10-26T02:31:59.322Z,85.86
2022-10-26T02:37:07.652Z,85.60
2022-10-26T02:42:14.688Z,85.66
2022-10-26T02:47:22.596Z,85.70
2022-10-26T02:52:33.742Z,85.67
2022-10-26T02:57:42.741Z,85.57
2022-10-26T03:02:58.730Z,85.43
2022-10-26T03:08:04.665Z,85.50
2022-10-26T03:13:11.155Z,85.34
2022-10-26T03:18:16.617Z,85.59
2022-10-26T03:23:22.086Z,85.35
2022-10-26T03:28:27.613Z,85.40
2022-10-26T03:33:33.127Z,85.52
2022-10-26T03:38:38.690Z,85.49
2022-10-26T03:43:44.074Z,85.31
2022-10-26T03:48:49.608Z,85.29
2022-10-26T03:53:55.143Z,85.17
2022-10-26T03:59:00.783Z,85.26
2022-10-26T04:04:06.515Z,85.20
2022-10-26T04:09:12.314Z,85.28
2022-10-26T04:14:17.782Z,82.13
2022-10-26T04:19:23.284Z,83.91
2022-10-26T04:24:28.817Z,84.26
2022-10-26T04:29:34.360Z,84.54
2022-10-26T04:34:39.803Z,84.63
2022-10-26T04:39:45.478Z,84.70
2022-10-26T04:44:50.979Z,84.86
2022-10-26T04:49:56.368Z,84.85
2022-10-26T04:55:02.188Z,84.92
2022-10-26T05:00:08.378Z,84.86
2022-10-26T05:05:15.170Z,84.96
2022-10-26T05:10:20.870Z,85.03
2022-10-26T05:15:26.800Z,84.96
2022-10-26T05:20:34.621Z,85.00
2022-10-26T05:25:40.614Z,85.03
2022-10-26T05:30:47.342Z,85.14
2022-10-26T05:35:57.203Z,85.34
2022-10-26T05:41:02.728Z,85.34
2022-10-26T05:46:08.124Z,85.46
2022-10-26T05:51:14.441Z,85.74
2022-10-26T05:56:37.021Z,85.74
2022-10-26T06:02:09.820Z,85.84
2022-10-26T06:07:22.978Z,85.87
2022-10-26T06:12:29.320Z,85.97
2022-10-26T06:17:54.280Z,86.12
2022-10-26T06:23:04.355Z,86.19
2022-10-26T06:28:49.930Z,86.35
2022-10-26T06:33:56.816Z,86.43
2022-10-26T06:39:11.604Z,86.58
2022-10-26T06:44:23.776Z,86.47
2022-10-26T06:49:41.007Z,86.60
2022-10-26T06:54:55.828Z,86.60
2022-10-26T07:00:10.047Z,86.71
2022-10-26T07:05:15.776Z,87.03
2022-10-26T07:10:21.263Z,86.80
2022-10-26T07:15:26.799Z,86.55
2022-10-26T07:20:32.861Z,86.72
2022-10-26T07:25:40.655Z,86.62
2022-10-26T07:30:46.316Z,86.89
2022-10-26T07:35:53.037Z,86.85
2022-10-26T07:40:58.493Z,86.42
2022-10-26T07:46:04.029Z,86.28
2022-10-26T07:51:09.632Z,86.12
2022-10-26T07:56:15.299Z,85.87
2022-10-26T08:01:21.846Z,85.96
2022-10-26T08:06:27.372Z,85.78
2022-10-26T08:11:32.967Z,85.45
2022-10-26T08:16:40.729Z,85.55
2022-10-26T08:21:47.258Z,85.05
2022-10-26T08:26:52.929Z,84.88
2022-10-26T08:31:58.391Z,84.70
2022-10-26T08:37:03.988Z,84.21
2022-10-26T08:42:15.299Z,83.90
2022-10-26T08:47:26.788Z,83.70
2022-10-26T08:52:41.062Z,83.22
2022-10-26T08:57:49.593Z,82.87
2022-10-26T09:02:55.667Z,82.64
2022-10-26T09:08:10.133Z,82.34
2022-10-26T09:13:47.360Z,81.91
2022-10-26T09:18:57.761Z,81.52
2022-10-26T09:24:35.669Z,81.22
2022-10-26T09:29:43.812Z,80.98
2022-10-26T09:34:55.211Z,80.63
2022-10-26T09:40:12.064Z,80.05
2022-10-26T09:45:23.408Z,79.55
2022-10-26T09:50:37.351Z,78.52
2022-10-26T09:55:52.266Z,78.44
2022-10-26T10:00:58.813Z,77.81
2022-10-26T10:06:18.858Z,77.63
2022-10-26T10:11:26.112Z,76.82
2022-10-26T10:16:32.129Z,76.41
2022-10-26T10:21:40.555Z,76.14
2022-10-26T10:27:07.192Z,76.10
2022-10-26T10:32:24.058Z,75.47
2022-10-26T10:37:38.839Z,76.07
2022-10-26T10:42:47.717Z,75.68
2022-10-26T10:48:15.813Z,75.59
2022-10-26T10:53:33.216Z,74.58
2022-10-26T10:58:47.388Z,74.34
2022-10-26T11:04:02.486Z,74.38
2022-10-26T11:09:14.208Z,74.53
2022-10-26T11:14:25.689Z,73.80
2022-10-26T11:19:40.189Z,73.88
2022-10-26T11:24:57.227Z,73.36
2022-10-26T11:30:08.686Z,72.07
2022-10-26T11:35:24.605Z,72.63
2022-10-26T11:40:48.179Z,71.77
2022-10-26T11:46:02.488Z,71.79
2022-10-26T11:51:10.896Z,70.77
2022-10-26T11:56:21.905Z,70.95
2022-10-26T12:01:29.484Z,69.80
2022-10-26T12:06:36.472Z,70.19
2022-10-26T12:11:45.477Z,69.45
2022-10-26T12:16:59.906Z,68.46
2022-10-26T12:22:06.429Z,67.94
2022-10-26T12:27:31.135Z,67.56
2022-10-26T12:32:43.710Z,66.78
2022-10-26T12:37:48.686Z,66.37
2022-10-26T12:42:54.559Z,65.71
2022-10-26T12:48:10.865Z,65.61
2022-10-26T12:53:15.070Z,64.89
2022-10-26T12:58:23.844Z,64.32
2022-10-26T13:03:48.759Z,64.24
2022-10-26T13:08:58.828Z,64.03
2022-10-26T13:14:07.461Z,62.73
2022-10-26T13:19:23.910Z,63.18
2022-10-26T13:24:32.577Z,62.63
2022-10-26T13:30:07.241Z,61.29
2022-10-26T13:35:16.934Z,61.18
2022-10-26T13:40:28.250Z,61.61
2022-10-26T13:45:36.304Z,61.33
2022-10-26T13:50:50.584Z,58.26
2022-10-26T13:56:08.645Z,60.12
2022-10-26T14:01:36.928Z,60.05
2022-10-26T14:06:44.130Z,60.25
2022-10-26T14:11:52.563Z,60.36
2022-10-26T14:16:59.277Z,60.05
2022-10-26T14:22:05.602Z,60.42
2022-10-26T14:27:22.589Z,60.31
2022-10-26T14:32:33.986Z,60.64
2022-10-26T14:37:48.919Z,60.69
2022-10-26T14:42:57.455Z,60.63
2022-10-26T14:48:05.124Z,60.85
2022-10-26T14:53:18.185Z,60.93
2022-10-26T15:03:34.975Z,61.46
2022-10-26T15:08:56.864Z,61.51
2022-10-26T15:13:57.463Z,61.71
2022-10-26T15:19:09.123Z,61.89
2022-10-26T15:24:39.959Z,62.01
2022-10-26T15:29:51.237Z,62.21
2022-10-26T15:35:18.421Z,62.55
2022-10-26T15:45:35.995Z,63.29
2022-10-26T15:50:41.901Z,63.74
2022-10-26T15:55:47.745Z,64.06
2022-10-26T16:00:53.455Z,64.58
2022-10-26T16:06:02.509Z,65.03
2022-10-26T16:11:08.265Z,65.56
2022-10-26T16:16:18.298Z,66.00
2022-10-26T16:21:26.022Z,66.34
2022-10-26T16:26:31.558Z,66.87
2022-10-26T16:31:37.191Z,67.38
2022-10-26T16:36:42.810Z,67.95
2022-10-26T16:41:50.876Z,68.58
2022-10-26T16:46:56.351Z,69.07
2022-10-26T16:52:01.831Z,69.58
2022-10-26T16:57:07.352Z,70.05
2022-10-26T17:02:15.799Z,70.35
2022-10-26T17:07:21.209Z,70.60
2022-10-26T17:17:32.818Z,71.17
2022-10-26T17:22:38.280Z,71.57
2022-10-26T17:27:46.506Z,71.74
2022-10-26T17:32:52.446Z,72.08
2022-10-26T17:37:58.188Z,72.35
2022-10-26T17:43:03.727Z,72.46
2022-10-26T17:48:09.331Z,72.76
2022-10-26T17:53:14.887Z,73.09
2022-10-26T17:58:21.156Z,73.29
2022-10-26T18:03:26.608Z,73.56
2022-10-26T18:08:33.632Z,73.89
2022-10-26T18:13:39.169Z,74.13
2022-10-26T18:18:52.495Z,74.41
2022-10-26T18:23:58.026Z,74.73
2022-10-26T18:29:04.665Z,75.24
2022-10-26T18:34:11.927Z,75.50
2022-10-26T18:39:17.333Z,75.55
2022-10-26T18:44:22.955Z,75.92
2022-10-26T18:49:29.211Z,76.14
2022-10-26T18:54:34.752Z,76.46
2022-10-26T18:59:40.387Z,76.72
2022-10-26T19:04:45.870Z,76.91
2022-10-26T19:09:51.399Z,76.84
2022-10-26T19:14:56.805Z,76.70
2022-10-26T19:20:02.269Z,76.98
2022-10-26T19:25:09.021Z,76.83
2022-10-26T19:30:16.000Z,77.04
2022-10-26T19:35:21.614Z,77.25
2022-10-26T19:40:26.991Z,77.33
2022-10-26T19:45:32.710Z,77.16
2022-10-26T19:50:38.232Z,77.37
2022-10-26T19:55:47.388Z,78.07
2022-10-26T20:06:05.968Z,78.56
2022-10-26T20:11:15.545Z,78.65
2022-10-26T20:16:20.070Z,78.87
2022-10-26T20:21:25.552Z,78.66
2022-10-26T20:26:31.084Z,78.71
2022-10-26T20:31:36.455Z,78.92
2022-10-26T20:36:41.919Z,79.01
2022-10-26T20:41:49.296Z,79.05
2022-10-26T20:46:55.387Z,79.35
2022-10-26T20:52:20.255Z,79.01
2022-10-26T20:57:14.073Z,79.68
2022-10-26T21:02:21.234Z,79.33
2022-10-26T21:07:26.796Z,79.19
2022-10-26T21:12:32.364Z,79.32
2022-10-26T21:17:37.868Z,79.56
2022-10-26T21:22:43.311Z,79.79
2022-10-26T21:27:49.211Z,79.76
2022-10-26T21:38:00.790Z,79.38
2022-10-26T21:43:06.353Z,79.93
2022-10-26T21:48:11.815Z,80.07
2022-10-26T21:53:17.666Z,79.79
2022-10-26T21:58:23.131Z,80.19
2022-10-26T22:03:28.648Z,80.89
2022-10-26T22:08:35.200Z,81.30
2022-10-26T22:13:40.888Z,80.33
2022-10-26T22:18:47.412Z,81.01
2022-10-26T22:23:53.137Z,81.00
2022-10-26T22:28:58.865Z,80.68
2022-10-26T22:34:07.909Z,80.52
2022-10-26T22:39:14.001Z,80.48
2022-10-26T22:44:19.562Z,80.45
2022-10-26T22:49:25.174Z,80.77
2022-10-26T22:54:30.646Z,80.70
2022-10-26T22:59:36.176Z,80.61
2022-10-26T23:04:41.751Z,80.68
2022-10-26T23:09:47.247Z,80.87
2022-10-26T23:14:52.801Z,80.83
2022-10-26T23:19:58.277Z,81.51
2022-10-26T23:25:03.833Z,81.93
2022-10-26T23:30:10.539Z,81.49
2022-10-26T23:35:16.066Z,81.98
2022-10-26T23:40:21.718Z,82.61
2022-10-26T23:45:27.294Z,83.16
2022-10-26T23:50:32.821Z,83.39
2022-10-26T23:55:38.644Z,83.67
